Time;durP1;ratioP1;P1;durP2;ratioP2;P2;SDS_P1;SDS_P2;PMS_P1;PMS_P2;Temp;Humidity;BMP_temperature;BMP_pressure;BME280_temperature;BME280_humidity;BME280_pressure;Samples;Min_cycle;Max_cycle;Signal;HPM_P1;HPM_P2
2023/01/01 00:00:11;;;;;;;34.13;24.77;;;;;;;;;;5084782;28;20049;-75
2023/01/01 00:02:37;;;;;;;32.60;19.50;;;;;;;;;;5086257;28;20043;-75
2023/01/01 00:05:03;;;;;;;35.25;26.23;;;;;;;;;;5085807;28;20375;-75
2023/01/01 00:07:29;;;;;;;36.65;25.20;;;;;;;;;;5088468;28;20028;-75
2023/01/01 00:12:40;;;;;;;32.35;22.70;;;;;;;;;;5087949;28;20039;-75
2023/01/01 00:15:06;;;;;;;33.85;24.50;;;;;;;;;;5084918;28;20036;-75
2023/01/01 00:17:32;;;;;;;39.83;26.30;;;;;;;;;;5085478;28;20698;-75
2023/01/01 00:19:58;;;;;;;29.02;19.83;;;;;;;;;;5086981;28;20032;-75
2023/01/01 00:22:25;;;;;;;37.80;25.92;;;;;;;;;;5088438;28;20086;-75
2023/01/01 00:24:51;;;;;;;31.58;23.98;;;;;;;;;;5085690;28;20028;-75
2023/01/01 00:27:17;;;;;;;37.50;24.88;;;;;;;;;;5084620;28;20398;-75
2023/01/01 00:29:43;;;;;;;35.15;24.70;;;;;;;;;;5085201;28;20107;-75
2023/01/01 00:32:11;;;;;;;26.20;17.58;;;;;;;;;;5087527;28;20085;-75
2023/01/01 00:34:37;;;;;;;28.23;18.52;;;;;;;;;;5087028;28;20048;-75
2023/01/01 00:37:03;;;;;;;46.80;33.28;;;;;;;;;;5085842;28;20071;-75
2023/01/01 00:39:29;;;;;;;34.95;24.58;;;;;;;;;;5088090;28;20071;-75
2023/01/01 00:41:55;;;;;;;23.25;15.82;;;;;;;;;;5085865;28;20867;-75
2023/01/01 00:44:21;;;;;;;20.63;14.68;;;;;;;;;;5084258;28;20075;-75
2023/01/01 00:46:47;;;;;;;24.30;16.90;;;;;;;;;;5083527;28;20067;-75
2023/01/01 00:49:13;;;;;;;22.83;15.10;;;;;;;;;;5085304;28;20059;-75
2023/01/01 00:51:38;;;;;;;28.67;16.83;;;;;;;;;;5078767;28;20032;-75
2023/01/01 00:54:04;;;;;;;29.13;17.33;;;;;;;;;;5086658;28;20040;-75
2023/01/01 00:56:30;;;;;;;22.50;14.68;;;;;;;;;;5080484;28;20051;-75
2023/01/01 00:58:57;;;;;;;23.08;15.23;;;;;;;;;;5085280;28;20978;-75
2023/01/01 01:01:22;;;;;;;27.00;16.73;;;;;;;;;;5083631;28;20027;-75
2023/01/01 01:03:49;;;;;;;28.23;15.68;;;;;;;;;;5084304;28;20036;-75
2023/01/01 01:06:16;;;;;;;24.42;15.13;;;;;;;;;;5064485;28;20111;-75
2023/01/01 01:08:43;;;;;;;21.05;14.68;;;;;;;;;;5088000;28;20077;-75
2023/01/01 01:11:17;;;;;;;26.85;17.23;;;;;;;;;;5081339;28;20077;-75
2023/01/01 01:13:44;;;;;;;31.48;17.83;;;;;;;;;;5086288;28;20054;-75
2023/01/01 01:16:11;;;;;;;33.95;19.92;;;;;;;;;;5084876;28;20063;-76
2023/01/01 01:18:37;;;;;;;30.67;19.30;;;;;;;;;;5083961;28;20079;-75
2023/01/01 01:21:03;;;;;;;26.17;17.52;;;;;;;;;;5078599;28;20040;-75
2023/01/01 01:23:29;;;;;;;24.73;15.65;;;;;;;;;;5076703;28;20046;-75
2023/01/01 01:26:05;;;;;;;23.08;14.63;;;;;;;;;;5083377;28;20032;-75
2023/01/01 01:28:31;;;;;;;29.83;18.10;;;;;;;;;;5063933;28;20036;-75
2023/01/01 01:30:59;;;;;;;32.72;21.90;;;;;;;;;;5081309;28;20043;-75
2023/01/01 01:33:25;;;;;;;42.17;27.00;;;;;;;;;;5080148;28;20059;-75
2023/01/01 01:35:51;;;;;;;43.53;27.60;;;;;;;;;;5078534;28;20090;-75
2023/01/01 01:38:17;;;;;;;47.63;30.15;;;;;;;;;;5081912;28;20774;-75
2023/01/01 01:40:43;;;;;;;34.47;21.88;;;;;;;;;;5085069;28;20032;-75
2023/01/01 01:43:20;;;;;;;30.30;19.70;;;;;;;;;;5082746;28;20086;-75
2023/01/01 01:45:46;;;;;;;28.95;20.60;;;;;;;;;;5084371;28;20046;-75
2023/01/01 01:48:12;;;;;;;28.52;18.38;;;;;;;;;;5083626;28;20110;-75
2023/01/01 01:50:40;;;;;;;29.17;17.83;;;;;;;;;;5087075;28;20031;-76
2023/01/01 01:53:10;;;;;;;24.77;17.80;;;;;;;;;;5073394;28;20024;-75
2023/01/01 01:55:39;;;;;;;33.88;19.58;;;;;;;;;;5083145;28;20063;-75
2023/01/01 01:58:05;;;;;;;30.70;21.20;;;;;;;;;;5083207;28;20051;-75
2023/01/01 02:00:31;;;;;;;39.05;24.98;;;;;;;;;;5080758;28;20554;-75
2023/01/01 02:03:26;;;;;;;42.47;29.13;;;;;;;;;;5077421;28;20051;-75
2023/01/01 02:05:53;;;;;;;42.03;25.70;;;;;;;;;;5057798;28;20048;-75
2023/01/01 02:08:20;;;;;;;38.55;27.50;;;;;;;;;;5084714;28;20525;-75
2023/01/01 02:10:46;;;;;;;32.58;22.75;;;;;;;;;;5085843;28;20467;-75
2023/01/01 02:13:12;;;;;;;39.55;25.65;;;;;;;;;;5083886;28;20101;-75
2023/01/01 02:15:50;;;;;;;38.35;24.15;;;;;;;;;;5085509;28;20035;-75
2023/01/01 02:18:19;;;;;;;33.92;23.73;;;;;;;;;;5082045;28;20047;-75
2023/01/01 02:20:50;;;;;;;32.00;21.55;;;;;;;;;;5081387;28;20076;-75
2023/01/01 02:23:28;;;;;;;40.47;26.35;;;;;;;;;;5079194;28;20432;-75
2023/01/01 02:25:57;;;;;;;48.17;29.90;;;;;;;;;;5078861;28;20036;-75
2023/01/01 02:28:43;;;;;;;54.92;31.35;;;;;;;;;;5082197;28;20067;-75
2023/01/01 02:31:11;;;;;;;39.55;26.25;;;;;;;;;;5082123;28;20032;-75
2023/01/01 02:33:37;;;;;;;40.75;27.17;;;;;;;;;;5081589;28;20030;-75
2023/01/01 02:36:04;;;;;;;51.00;31.33;;;;;;;;;;5079782;28;20048;-75
2023/01/01 02:38:32;;;;;;;47.30;30.85;;;;;;;;;;5081046;28;20036;-75
2023/01/01 02:41:03;;;;;;;50.92;29.83;;;;;;;;;;5084597;28;20109;-75
2023/01/01 02:43:29;;;;;;;64.03;40.20;;;;;;;;;;5081189;28;20039;-75
2023/01/01 02:45:55;;;;;;;48.90;29.85;;;;;;;;;;5083000;28;20032;-75
2023/01/01 02:48:37;;;;;;;40.75;22.70;;;;;;;;;;5080500;28;20024;-75
2023/01/01 02:51:11;;;;;;;34.00;20.27;;;;;;;;;;5083385;28;20063;-75
2023/01/01 02:53:39;;;;;;;30.20;17.83;;;;;;;;;;5082286;28;20021;-75
2023/01/01 02:56:15;;;;;;;27.00;16.83;;;;;;;;;;5083152;28;20032;-75
2023/01/01 03:01:47;;;;;;;28.27;19.15;;;;;;;;;;5079696;28;20055;-75
2023/01/01 03:04:26;;;;;;;28.55;17.58;;;;;;;;;;5079007;28;20036;-75
2023/01/01 03:06:55;;;;;;;29.23;19.58;;;;;;;;;;5085865;28;20526;-75
2023/01/01 03:09:32;;;;;;;31.42;20.38;;;;;;;;;;5082501;28;20066;-75
2023/01/01 03:12:10;;;;;;;34.88;23.25;;;;;;;;;;5082161;28;20360;-75
2023/01/01 03:14:45;;;;;;;32.45;19.50;;;;;;;;;;5081566;28;20130;-75
2023/01/01 03:17:11;;;;;;;40.15;25.05;;;;;;;;;;5088445;28;20131;-75
2023/01/01 03:19:39;;;;;;;46.35;28.77;;;;;;;;;;5084054;28;20150;-75
2023/01/01 03:22:07;;;;;;;36.28;25.23;;;;;;;;;;5083932;28;20043;-75
2023/01/01 03:24:35;;;;;;;33.88;20.33;;;;;;;;;;5084317;28;20037;-75
2023/01/01 03:27:07;;;;;;;37.40;23.35;;;;;;;;;;5086261;28;20031;-75
2023/01/01 03:29:35;;;;;;;30.60;19.30;;;;;;;;;;5086044;28;20024;-75
2023/01/01 03:32:02;;;;;;;29.98;19.27;;;;;;;;;;5090184;28;20058;-75
2023/01/01 03:34:32;;;;;;;27.55;18.63;;;;;;;;;;5087668;28;20043;-75
2023/01/01 03:37:00;;;;;;;29.13;19.48;;;;;;;;;;5085504;28;20028;-75
2023/01/01 03:39:31;;;;;;;37.13;22.75;;;;;;;;;;5082052;28;20067;-75
2023/01/01 03:42:11;;;;;;;31.95;20.38;;;;;;;;;;5059148;28;20036;-75
2023/01/01 03:44:43;;;;;;;31.77;18.65;;;;;;;;;;5084507;28;20057;-75
2023/01/01 03:47:09;;;;;;;27.35;18.20;;;;;;;;;;5072750;28;20044;-75
2023/01/01 03:49:36;;;;;;;30.00;19.13;;;;;;;;;;5086425;28;20034;-75
2023/01/01 03:52:08;;;;;;;29.45;18.73;;;;;;;;;;5083392;28;20063;-75
2023/01/01 03:54:45;;;;;;;42.40;22.17;;;;;;;;;;5082320;28;20179;-75
2023/01/01 03:57:14;;;;;;;39.97;23.70;;;;;;;;;;5086317;28;20422;-76
2023/01/01 04:00:00;;;;;;;48.80;25.55;;;;;;;;;;5083859;28;20071;-75
2023/01/01 04:02:29;;;;;;;50.20;26.25;;;;;;;;;;5085550;28;20076;-75
2023/01/01 04:04:55;;;;;;;34.83;20.50;;;;;;;;;;5080893;28;20036;-75
2023/01/01 04:07:22;;;;;;;32.30;19.60;;;;;;;;;;5079363;28;20032;-75
2023/01/01 04:09:49;;;;;;;37.70;23.02;;;;;;;;;;5080212;28;20052;-75
2023/01/01 04:12:16;;;;;;;34.75;20.95;;;;;;;;;;5086370;28;20194;-75
2023/01/01 04:14:43;;;;;;;47.13;26.42;;;;;;;;;;5088525;28;20028;-76
2023/01/01 04:17:10;;;;;;;35.38;23.58;;;;;;;;;;5082328;28;20749;-75
2023/01/01 04:19:36;;;;;;;33.92;20.20;;;;;;;;;;5083719;28;20040;-75
2023/01/01 04:22:02;;;;;;;43.53;23.42;;;;;;;;;;5086677;28;20038;-75
2023/01/01 04:24:29;;;;;;;39.65;21.85;;;;;;;;;;5080366;28;20044;-75
2023/01/01 04:26:55;;;;;;;38.63;22.85;;;;;;;;;;5084264;28;20168;-75
2023/01/01 04:29:21;;;;;;;33.42;20.13;;;;;;;;;;5083505;28;20032;-76
2023/01/01 04:31:47;;;;;;;25.98;13.82;;;;;;;;;;5081242;28;20382;-75
2023/01/01 04:34:13;;;;;;;33.03;18.02;;;;;;;;;;5087626;28;20070;-75
2023/01/01 04:36:40;;;;;;;34.00;19.75;;;;;;;;;;5086832;28;20381;-75
2023/01/01 04:39:06;;;;;;;30.42;16.80;;;;;;;;;;5084851;28;20035;-75
2023/01/01 04:41:32;;;;;;;30.38;17.77;;;;;;;;;;5087312;28;20343;-75
2023/01/01 04:43:58;;;;;;;31.90;17.63;;;;;;;;;;5087517;28;20036;-75
2023/01/01 04:46:24;;;;;;;31.13;19.58;;;;;;;;;;5086311;28;20028;-75
2023/01/01 04:48:50;;;;;;;32.60;18.83;;;;;;;;;;5087055;28;20078;-75
2023/01/01 04:51:18;;;;;;;34.67;19.38;;;;;;;;;;5085075;28;20391;-75
2023/01/01 04:53:44;;;;;;;28.42;17.00;;;;;;;;;;5082137;28;20032;-75
2023/01/01 04:56:12;;;;;;;28.38;17.58;;;;;;;;;;5079918;28;20070;-76
2023/01/01 04:58:38;;;;;;;26.17;18.00;;;;;;;;;;5079728;28;20379;-75
2023/01/01 05:01:05;;;;;;;29.75;17.10;;;;;;;;;;5081255;28;20028;-75
2023/01/01 05:03:31;;;;;;;27.92;17.33;;;;;;;;;;5080251;28;20043;-75
2023/01/01 05:06:01;;;;;;;27.80;16.20;;;;;;;;;;5081245;28;20233;-75
2023/01/01 05:08:33;;;;;;;27.85;16.55;;;;;;;;;;5086328;28;20168;-75
2023/01/01 05:11:07;;;;;;;27.23;15.68;;;;;;;;;;5073304;28;20130;-75
2023/01/01 05:13:39;;;;;;;32.78;18.90;;;;;;;;;;5080375;28;20024;-75
2023/01/01 05:16:06;;;;;;;23.80;15.93;;;;;;;;;;5083318;28;20031;-75
2023/01/01 05:18:35;;;;;;;21.88;14.85;;;;;;;;;;5079650;28;20483;-75
2023/01/01 05:21:01;;;;;;;26.30;14.23;;;;;;;;;;5073357;28;20036;-75
2023/01/01 05:23:31;;;;;;;25.10;13.43;;;;;;;;;;5079917;28;20043;-75
2023/01/01 05:25:57;;;;;;;23.27;14.73;;;;;;;;;;5061449;28;20675;-75
2023/01/01 05:28:23;;;;;;;22.77;13.38;;;;;;;;;;5083300;28;20574;-75
2023/01/01 05:30:50;;;;;;;20.92;12.52;;;;;;;;;;5086836;28;20032;-75
2023/01/01 05:33:16;;;;;;;24.63;13.52;;;;;;;;;;5087732;28;20038;-75
2023/01/01 05:35:42;;;;;;;22.00;12.88;;;;;;;;;;5079009;28;20083;-75
2023/01/01 05:38:08;;;;;;;22.35;11.55;;;;;;;;;;5087064;28;20036;-75
2023/01/01 05:40:34;;;;;;;17.77;12.35;;;;;;;;;;5085022;28;20073;-75
2023/01/01 05:43:00;;;;;;;24.55;12.98;;;;;;;;;;5086428;28;20036;-75
2023/01/01 05:45:26;;;;;;;22.48;12.63;;;;;;;;;;5083926;28;20036;-75
2023/01/01 05:47:52;;;;;;;18.77;12.50;;;;;;;;;;5073444;28;20032;-75
2023/01/01 05:50:18;;;;;;;20.83;12.35;;;;;;;;;;5082283;28;20111;-75
2023/01/01 05:52:44;;;;;;;19.90;11.95;;;;;;;;;;5078639;28;20404;-75
2023/01/01 05:55:10;;;;;;;19.80;11.60;;;;;;;;;;5078241;28;20107;-75
2023/01/01 05:57:36;;;;;;;20.25;12.32;;;;;;;;;;5082330;28;20131;-75
2023/01/01 06:00:02;;;;;;;19.65;12.68;;;;;;;;;;5080195;28;20430;-75
2023/01/01 06:02:30;;;;;;;18.60;10.13;;;;;;;;;;5082086;28;20480;-75
2023/01/01 06:04:56;;;;;;;21.48;11.57;;;;;;;;;;5074290;28;20742;-75
2023/01/01 06:07:22;;;;;;;16.17;8.57;;;;;;;;;;5081229;28;20040;-75
2023/01/01 06:09:48;;;;;;;17.95;8.45;;;;;;;;;;5085870;28;20039;-75
2023/01/01 06:12:14;;;;;;;16.83;9.93;;;;;;;;;;5080757;28;20046;-75
2023/01/01 06:14:40;;;;;;;19.23;10.30;;;;;;;;;;5084261;28;20056;-75
2023/01/01 06:17:06;;;;;;;18.15;10.48;;;;;;;;;;5083424;28;20063;-75
2023/01/01 06:19:32;;;;;;;18.63;9.55;;;;;;;;;;5079826;28;20028;-75
2023/01/01 06:21:58;;;;;;;16.33;8.43;;;;;;;;;;5079724;28;20860;-75
2023/01/01 06:24:24;;;;;;;11.23;6.75;;;;;;;;;;5081925;28;20036;-75
2023/01/01 06:26:50;;;;;;;17.73;10.57;;;;;;;;;;5081642;28;20689;-75
2023/01/01 06:29:16;;;;;;;14.50;8.63;;;;;;;;;;5084593;28;20062;-75
2023/01/01 06:31:42;;;;;;;18.75;10.27;;;;;;;;;;5084681;28;20047;-75
2023/01/01 06:34:08;;;;;;;13.98;9.65;;;;;;;;;;5080802;28;20477;-75
2023/01/01 06:36:34;;;;;;;17.20;8.48;;;;;;;;;;5081189;28;20040;-75
2023/01/01 06:39:02;;;;;;;15.10;8.85;;;;;;;;;;5079829;28;20532;-75
2023/01/01 06:41:29;;;;;;;16.65;8.52;;;;;;;;;;5083521;28;20032;-75
2023/01/01 06:43:56;;;;;;;16.00;8.40;;;;;;;;;;5079166;28;20073;-75
2023/01/01 06:46:23;;;;;;;20.80;9.65;;;;;;;;;;5080432;28;20047;-75
2023/01/01 06:48:50;;;;;;;17.00;10.02;;;;;;;;;;5082377;28;20397;-75
2023/01/01 06:51:18;;;;;;;17.55;9.57;;;;;;;;;;5082436;28;20035;-75
2023/01/01 06:53:44;;;;;;;16.65;10.57;;;;;;;;;;5079057;28;20032;-75
2023/01/01 06:56:10;;;;;;;16.90;10.68;;;;;;;;;;5079492;28;20043;-75
2023/01/01 06:58:36;;;;;;;14.50;9.55;;;;;;;;;;5076441;28;20032;-75
2023/01/01 07:01:03;;;;;;;16.55;10.02;;;;;;;;;;5083369;28;20047;-75
2023/01/01 07:03:29;;;;;;;19.33;10.18;;;;;;;;;;5080952;28;20868;-75
2023/01/01 07:05:55;;;;;;;17.42;10.27;;;;;;;;;;5083994;28;20036;-75
2023/01/01 07:08:20;;;;;;;18.83;10.73;;;;;;;;;;5073050;28;20031;-76
2023/01/01 07:10:46;;;;;;;19.08;10.23;;;;;;;;;;5082962;28;20028;-75
2023/01/01 07:13:12;;;;;;;17.60;8.50;;;;;;;;;;5080696;28;20033;-75
2023/01/01 07:15:38;;;;;;;15.63;9.55;;;;;;;;;;5083640;28;20500;-75
2023/01/01 07:18:04;;;;;;;13.00;9.10;;;;;;;;;;5078341;28;20103;-75
2023/01/01 07:20:30;;;;;;;22.00;11.98;;;;;;;;;;5078173;28;20383;-75
2023/01/01 07:22:56;;;;;;;18.90;10.18;;;;;;;;;;5077083;28;20024;-75
2023/01/01 07:25:22;;;;;;;15.93;9.60;;;;;;;;;;5080184;28;20037;-75
2023/01/01 07:27:48;;;;;;;19.98;10.50;;;;;;;;;;5085896;28;20038;-75
2023/01/01 07:30:14;;;;;;;20.05;11.15;;;;;;;;;;5081540;28;20024;-75
2023/01/01 07:32:41;;;;;;;21.77;11.77;;;;;;;;;;5080509;28;20032;-75
2023/01/01 07:35:07;;;;;;;18.63;11.68;;;;;;;;;;5083687;28;20055;-75
2023/01/01 07:37:33;;;;;;;24.15;11.85;;;;;;;;;;5084122;28;20031;-75
2023/01/01 07:39:59;;;;;;;23.48;12.75;;;;;;;;;;5080890;28;20032;-75
2023/01/01 07:42:25;;;;;;;19.00;11.05;;;;;;;;;;5084603;28;20043;-75
2023/01/01 07:44:51;;;;;;;25.67;14.18;;;;;;;;;;5082630;28;20603;-75
2023/01/01 07:47:24;;;;;;;21.35;13.32;;;;;;;;;;5078981;28;20040;-75
2023/01/01 07:49:50;;;;;;;18.73;10.93;;;;;;;;;;5080232;28;20761;-75
2023/01/01 07:52:17;;;;;;;20.20;10.65;;;;;;;;;;5078023;28;20060;-75
2023/01/01 07:54:43;;;;;;;27.75;16.27;;;;;;;;;;5064749;28;20379;-75
2023/01/01 07:57:09;;;;;;;25.10;15.10;;;;;;;;;;5083035;28;20040;-75
2023/01/01 07:59:35;;;;;;;22.92;12.90;;;;;;;;;;5082676;28;20036;-75
2023/01/01 08:02:01;;;;;;;21.23;12.52;;;;;;;;;;5084396;28;20044;-75
2023/01/01 08:04:27;;;;;;;21.38;15.02;;;;;;;;;;5084621;28;20036;-75
2023/01/01 08:06:53;;;;;;;31.10;16.88;;;;;;;;;;5083141;28;20039;-75
2023/01/01 08:09:19;;;;;;;22.63;15.07;;;;;;;;;;5081182;28;20110;-75
2023/01/01 08:11:45;;;;;;;24.70;15.93;;;;;;;;;;5080878;28;20641;-75
2023/01/01 08:14:11;;;;;;;25.00;14.70;;;;;;;;;;5083202;28;20055;-75
2023/01/01 08:16:37;;;;;;;19.65;11.98;;;;;;;;;;5087459;28;20063;-75
2023/01/01 08:19:04;;;;;;;29.90;15.85;;;;;;;;;;5079837;28;20047;-75
2023/01/01 08:21:30;;;;;;;24.80;16.02;;;;;;;;;;5078230;28;20514;-75
2023/01/01 08:23:56;;;;;;;22.73;15.30;;;;;;;;;;5081847;28;20028;-75
2023/01/01 08:26:29;;;;;;;21.65;14.35;;;;;;;;;;5081841;28;20038;-75
2023/01/01 08:28:55;;;;;;;25.25;15.55;;;;;;;;;;5085644;28;20020;-75
2023/01/01 08:31:21;;;;;;;30.73;19.17;;;;;;;;;;5084173;28;20060;-75
2023/01/01 08:33:47;;;;;;;31.08;18.90;;;;;;;;;;5079523;28;20056;-75
2023/01/01 08:36:15;;;;;;;26.15;18.33;;;;;;;;;;5080348;28;20052;-75
2023/01/01 08:38:41;;;;;;;28.27;18.80;;;;;;;;;;5081838;28;20067;-75
2023/01/01 08:41:07;;;;;;;32.08;22.35;;;;;;;;;;5085822;28;20440;-75
2023/01/01 08:43:33;;;;;;;27.80;21.38;;;;;;;;;;5082821;28;20036;-75
2023/01/01 08:45:59;;;;;;;30.85;21.98;;;;;;;;;;5081226;28;20040;-75
2023/01/01 08:48:25;;;;;;;24.92;16.20;;;;;;;;;;5087608;28;20111;-75
2023/01/01 08:50:54;;;;;;;21.70;14.48;;;;;;;;;;5084209;28;20032;-76
2023/01/01 08:53:20;;;;;;;20.45;14.32;;;;;;;;;;5086970;28;20495;-75
2023/01/01 08:55:57;;;;;;;28.92;17.98;;;;;;;;;;5086320;28;20085;-75
2023/01/01 08:58:23;;;;;;;27.98;18.58;;;;;;;;;;5081358;28;20032;-75
2023/01/01 09:00:49;;;;;;;27.73;18.17;;;;;;;;;;5079046;28;20039;-75
2023/01/01 09:03:15;;;;;;;27.35;16.40;;;;;;;;;;5081178;28;20039;-75
2023/01/01 09:05:44;;;;;;;27.38;17.48;;;;;;;;;;5085692;28;20040;-75
2023/01/01 09:08:11;;;;;;;30.08;20.95;;;;;;;;;;5084650;28;20036;-75
2023/01/01 09:10:37;;;;;;;40.20;26.10;;;;;;;;;;5081207;28;20032;-75
2023/01/01 09:13:03;;;;;;;22.42;15.43;;;;;;;;;;5082307;28;20039;-75
2023/01/01 09:15:29;;;;;;;25.55;16.95;;;;;;;;;;5084059;28;20078;-75
2023/01/01 09:17:55;;;;;;;24.95;15.80;;;;;;;;;;5084825;28;20379;-75
2023/01/01 09:20:21;;;;;;;22.13;14.60;;;;;;;;;;5084737;28;20024;-75
2023/01/01 09:22:47;;;;;;;23.58;13.63;;;;;;;;;;5086011;28;20035;-75
2023/01/01 09:25:13;;;;;;;20.40;13.68;;;;;;;;;;5078686;28;20032;-75
2023/01/01 09:27:39;;;;;;;31.15;18.35;;;;;;;;;;5085597;28;20534;-75
2023/01/01 09:30:06;;;;;;;48.35;33.83;;;;;;;;;;5084205;28;20028;-75
2023/01/01 09:32:32;;;;;;;40.10;28.02;;;;;;;;;;5083562;28;20024;-75
2023/01/01 09:34:59;;;;;;;43.60;32.88;;;;;;;;;;5082651;28;20148;-75
2023/01/01 09:37:25;;;;;;;102.65;68.15;;;;;;;;;;5084391;28;20020;-75
2023/01/01 09:39:51;;;;;;;75.32;56.28;;;;;;;;;;5079831;28;20577;-75
2023/01/01 09:42:47;;;;;;;72.78;53.53;;;;;;;;;;5082684;28;20405;-75
2023/01/01 09:45:31;;;;;;;73.13;50.83;;;;;;;;;;4992273;28;20046;-75
2023/01/01 09:48:03;;;;;;;33.13;24.13;;;;;;;;;;5076036;28;20038;-75
2023/01/01 09:50:34;;;;;;;30.83;20.48;;;;;;;;;;5061716;28;20585;-75
2023/01/01 09:53:01;;;;;;;38.10;23.80;;;;;;;;;;5080858;28;20031;-75
2023/01/01 09:55:47;;;;;;;33.33;22.60;;;;;;;;;;5083585;28;20036;-75
2023/01/01 09:58:13;;;;;;;40.08;27.40;;;;;;;;;;5080580;28;20066;-75
2023/01/01 10:00:42;;;;;;;27.15;18.95;;;;;;;;;;5077514;28;20071;-75
2023/01/01 10:03:08;;;;;;;35.90;26.60;;;;;;;;;;5083200;28;20028;-75
2023/01/01 10:05:41;;;;;;;27.55;20.52;;;;;;;;;;5083000;28;20039;-75
2023/01/01 10:08:16;;;;;;;35.08;23.30;;;;;;;;;;5082547;28;20077;-75
2023/01/01 10:11:05;;;;;;;33.15;23.52;;;;;;;;;;5082340;28;20102;-75
2023/01/01 10:13:51;;;;;;;35.25;24.55;;;;;;;;;;5079706;28;20040;-75
2023/01/01 10:16:20;;;;;;;40.28;28.13;;;;;;;;;;5083903;28;20075;-75
2023/01/01 10:18:47;;;;;;;52.03;37.88;;;;;;;;;;5076702;28;20116;-75
2023/01/01 10:21:25;;;;;;;48.50;33.30;;;;;;;;;;5080386;28;20889;-75
2023/01/01 10:23:55;;;;;;;57.53;40.17;;;;;;;;;;5082131;28;20047;-75
2023/01/01 10:26:24;;;;;;;53.25;40.60;;;;;;;;;;5082221;28;20744;-75
2023/01/01 10:28:56;;;;;;;55.50;38.53;;;;;;;;;;5081788;28;20758;-75
2023/01/01 10:31:29;;;;;;;64.25;45.70;;;;;;;;;;5080601;28;20028;-75
2023/01/01 10:33:55;;;;;;;64.95;45.53;;;;;;;;;;5079727;28;20023;-75
2023/01/01 10:36:21;;;;;;;60.72;42.78;;;;;;;;;;5083613;28;20051;-75
2023/01/01 10:38:48;;;;;;;62.78;46.15;;;;;;;;;;5076358;28;20035;-75
2023/01/01 10:41:16;;;;;;;49.08;36.33;;;;;;;;;;5080848;28;20563;-75
2023/01/01 10:43:42;;;;;;;38.53;27.02;;;;;;;;;;5081263;28;20471;-75
2023/01/01 10:46:12;;;;;;;41.65;28.48;;;;;;;;;;5062699;28;20036;-75
2023/01/01 10:48:38;;;;;;;40.63;29.77;;;;;;;;;;5081600;28;20039;-75
2023/01/01 10:51:14;;;;;;;41.75;28.58;;;;;;;;;;5079958;28;20028;-75
2023/01/01 10:53:41;;;;;;;52.33;39.05;;;;;;;;;;5079125;28;20029;-75
2023/01/01 10:56:14;;;;;;;38.03;26.73;;;;;;;;;;5077823;28;20958;-75
2023/01/01 10:58:43;;;;;;;33.88;22.35;;;;;;;;;;5078065;28;20035;-75
2023/01/01 11:01:11;;;;;;;30.35;21.13;;;;;;;;;;5079308;28;20637;-75
2023/01/01 11:03:37;;;;;;;22.95;16.08;;;;;;;;;;5081446;28;20084;-75
2023/01/01 11:06:21;;;;;;;18.13;12.93;;;;;;;;;;5081566;28;20040;-75
2023/01/01 11:08:49;;;;;;;18.23;13.48;;;;;;;;;;5079759;28;20039;-75
2023/01/01 11:11:27;;;;;;;16.05;11.80;;;;;;;;;;5082395;28;20078;-75
2023/01/01 11:13:54;;;;;;;23.40;15.07;;;;;;;;;;5078434;28;20023;-76
2023/01/01 11:16:21;;;;;;;18.35;14.73;;;;;;;;;;5081697;28;21041;-75
2023/01/01 11:18:47;;;;;;;18.60;12.68;;;;;;;;;;5081578;28;20032;-75
2023/01/01 11:21:18;;;;;;;17.25;13.20;;;;;;;;;;5075504;28;20036;-75
2023/01/01 11:23:44;;;;;;;14.50;10.57;;;;;;;;;;5078682;28;20035;-75
2023/01/01 11:26:13;;;;;;;16.15;10.80;;;;;;;;;;5080963;28;20040;-75
2023/01/01 11:28:40;;;;;;;15.27;9.30;;;;;;;;;;5081765;28;20028;-75
2023/01/01 11:31:06;;;;;;;13.95;9.30;;;;;;;;;;5082598;28;20059;-75
2023/01/01 11:33:34;;;;;;;12.00;6.88;;;;;;;;;;5081809;28;20048;-75
2023/01/01 11:36:00;;;;;;;33.13;19.08;;;;;;;;;;5080233;28;20113;-75
2023/01/01 11:38:26;;;;;;;20.63;10.77;;;;;;;;;;5083863;28;20032;-75
2023/01/01 11:40:54;;;;;;;35.35;20.50;;;;;;;;;;5085502;28;20081;-75
2023/01/01 11:43:24;;;;;;;22.55;13.55;;;;;;;;;;5082034;28;20040;-75
2023/01/01 11:45:52;;;;;;;15.80;9.68;;;;;;;;;;5084249;28;20071;-75
2023/01/01 11:48:38;;;;;;;15.13;12.02;;;;;;;;;;5085149;28;20028;-75
2023/01/01 11:51:05;;;;;;;16.00;11.13;;;;;;;;;;5084318;28;20584;-76
2023/01/01 11:53:37;;;;;;;15.95;9.95;;;;;;;;;;5079616;28;20650;-75
2023/01/01 11:56:05;;;;;;;14.80;10.43;;;;;;;;;;5081655;28;20036;-75
2023/01/01 11:58:31;;;;;;;14.60;8.27;;;;;;;;;;5085548;28;20043;-75
2023/01/01 12:01:00;;;;;;;10.70;5.57;;;;;;;;;;5082407;28;20036;-75
2023/01/01 12:03:26;;;;;;;7.70;4.18;;;;;;;;;;5080732;28;20040;-75
2023/01/01 12:05:55;;;;;;;7.13;3.53;;;;;;;;;;5082798;28;20043;-75
2023/01/01 12:08:41;;;;;;;12.95;3.72;;;;;;;;;;5082348;28;20032;-75
2023/01/01 12:11:20;;;;;;;11.50;4.63;;;;;;;;;;5066641;28;20028;-75
2023/01/01 12:13:58;;;;;;;9.90;4.38;;;;;;;;;;5077449;28;20557;-75
2023/01/01 12:16:48;;;;;;;8.25;3.17;;;;;;;;;;5084497;28;20032;-75
2023/01/01 12:19:30;;;;;;;6.05;2.80;;;;;;;;;;5073021;28;20349;-75
2023/01/01 12:21:58;;;;;;;6.03;2.65;;;;;;;;;;5081703;28;20035;-75
2023/01/01 12:24:32;;;;;;;11.35;6.78;;;;;;;;;;5082081;28;20036;-75
2023/01/01 12:27:17;;;;;;;10.85;6.78;;;;;;;;;;5082028;28;20070;-75
2023/01/01 12:30:00;;;;;;;8.88;4.93;;;;;;;;;;5084654;28;20039;-75
2023/01/01 12:32:42;;;;;;;5.13;2.40;;;;;;;;;;5080349;28;20028;-75
2023/01/01 12:35:11;;;;;;;9.10;3.72;;;;;;;;;;5083438;28;20497;-75
2023/01/01 12:37:45;;;;;;;8.15;4.65;;;;;;;;;;5085694;28;20123;-75
2023/01/01 12:40:31;;;;;;;7.80;3.95;;;;;;;;;;5082351;28;20082;-75
2023/01/01 12:42:57;;;;;;;6.40;2.97;;;;;;;;;;5084522;28;20124;-75
2023/01/01 12:45:28;;;;;;;10.45;5.07;;;;;;;;;;5082347;28;20115;-75
2023/01/01 12:47:54;;;;;;;10.48;5.47;;;;;;;;;;5080804;28;20036;-75
2023/01/01 12:50:34;;;;;;;8.32;6.13;;;;;;;;;;5081865;28;20051;-75
2023/01/01 12:53:03;;;;;;;4.72;2.10;;;;;;;;;;5082003;28;20122;-75
2023/01/01 12:55:35;;;;;;;5.55;2.95;;;;;;;;;;5082032;28;20048;-75
2023/01/01 12:58:01;;;;;;;;;;;;;;;;;;5065422;28;20116;-75
2023/01/01 13:00:27;;;;;;;4.75;1.90;;;;;;;;;;5082408;28;20354;-75
2023/01/01 13:02:57;;;;;;;6.75;2.42;;;;;;;;;;5076674;28;20475;-75
2023/01/01 13:05:32;;;;;;;7.22;3.13;;;;;;;;;;5082770;28;20036;-75
2023/01/01 13:07:59;;;;;;;8.95;2.50;;;;;;;;;;5077871;28;20036;-75
2023/01/01 13:10:33;;;;;;;7.10;2.45;;;;;;;;;;5082108;28;20055;-75
2023/01/01 13:12:59;;;;;;;6.32;2.63;;;;;;;;;;5074024;28;20028;-75
2023/01/01 13:15:34;;;;;;;12.40;2.45;;;;;;;;;;5073375;28;20036;-75
2023/01/01 13:18:01;;;;;;;7.75;2.28;;;;;;;;;;5084395;28;20063;-75
2023/01/01 13:20:27;;;;;;;6.97;2.38;;;;;;;;;;5080027;28;20465;-75
2023/01/01 13:22:53;;;;;;;10.48;2.92;;;;;;;;;;5078182;28;20016;-75
2023/01/01 13:25:21;;;;;;;7.13;3.08;;;;;;;;;;5079426;28;20111;-75
2023/01/01 13:27:56;;;;;;;6.25;2.85;;;;;;;;;;5081985;28;20058;-75
2023/01/01 13:30:34;;;;;;;5.53;2.38;;;;;;;;;;5082042;28;20040;-75
2023/01/01 13:33:31;;;;;;;8.68;2.25;;;;;;;;;;5077394;28;20059;-75
2023/01/01 13:36:13;;;;;;;7.90;2.30;;;;;;;;;;5063396;28;20146;-75
2023/01/01 13:38:45;;;;;;;4.93;2.08;;;;;;;;;;5081768;28;20143;-75
2023/01/01 13:41:27;;;;;;;5.57;2.15;;;;;;;;;;5078241;28;20032;-75
2023/01/01 13:43:59;;;;;;;7.85;2.63;;;;;;;;;;5081287;28;20024;-75
2023/01/01 13:46:25;;;;;;;;;;;;;;;;;;5079354;28;20039;-75
2023/01/01 13:48:54;;;;;;;8.32;4.05;;;;;;;;;;5062643;28;19920;-75
2023/01/01 13:51:49;;;;;;;6.97;2.60;;;;;;;;;;5081224;28;20028;-75
2023/01/01 13:54:34;;;;;;;6.90;2.55;;;;;;;;;;4984199;28;20134;-75
2023/01/01 13:57:03;;;;;;;6.30;3.35;;;;;;;;;;5081300;28;20024;-75
2023/01/01 13:59:44;;;;;;;6.68;2.85;;;;;;;;;;5081732;28;20431;-75
2023/01/01 14:02:20;;;;;;;5.90;2.42;;;;;;;;;;5081848;28;20271;-75
2023/01/01 14:04:49;;;;;;;8.77;4.50;;;;;;;;;;5081687;28;20044;-75
2023/01/01 14:07:21;;;;;;;9.80;5.68;;;;;;;;;;5081501;28;20486;-75
2023/01/01 14:09:47;;;;;;;5.15;3.13;;;;;;;;;;5079425;28;20516;-75
2023/01/01 14:12:18;;;;;;;5.25;2.00;;;;;;;;;;5081825;28;20028;-75
2023/01/01 14:14:44;;;;;;;5.85;2.58;;;;;;;;;;5082874;28;20035;-75
2023/01/01 14:17:11;;;;;;;4.60;2.25;;;;;;;;;;5082387;28;20027;-75
2023/01/01 14:19:40;;;;;;;5.57;2.42;;;;;;;;;;5083099;28;20133;-75
2023/01/01 14:22:07;;;;;;;10.55;2.65;;;;;;;;;;5083636;28;20105;-75
2023/01/01 14:24:36;;;;;;;11.98;5.55;;;;;;;;;;5079435;28;20089;-75
2023/01/01 14:27:04;;;;;;;14.90;7.88;;;;;;;;;;5082319;28;20046;-75
2023/01/01 14:29:31;;;;;;;6.40;3.30;;;;;;;;;;5076376;28;20374;-76
2023/01/01 14:31:59;;;;;;;9.95;3.72;;;;;;;;;;5082477;28;20032;-75
2023/01/01 14:34:33;;;;;;;8.55;3.47;;;;;;;;;;5079083;28;20036;-75
2023/01/01 14:37:01;;;;;;;8.52;4.00;;;;;;;;;;5078703;28;20043;-75
2023/01/01 14:39:28;;;;;;;13.52;6.78;;;;;;;;;;5079123;28;20036;-75